Time;durP1;ratioP1;P1;durP2;ratioP2;P2;SDS_P1;SDS_P2;PMS_P1;PMS_P2;Temp;Humidity;BMP_temperature;BMP_pressure;BME280_temperature;BME280_humidity;BME280_pressure;Samples;Min_cycle;Max_cycle;Signal;HPM_P1;HPM_P2
2023/07/30 00:01:07;;;;;;;;;;;14.70;99.90;;;;;;5056070;28;19925;-87
2023/07/30 00:03:32;;;;;;;;;;;14.70;99.90;;;;;;5069521;28;19936;-86
2023/07/30 00:05:58;;;;;;;;;;;14.70;99.90;;;;;;5068472;28;19924;-86
2023/07/30 00:08:24;;;;;;;;;;;14.70;99.90;;;;;;5051022;28;20436;-86
2023/07/30 00:10:49;;;;;;;;;;;14.70;99.90;;;;;;5068292;28;19924;-85
2023/07/30 00:13:15;;;;;;;;;;;14.70;99.90;;;;;;5084845;28;19928;-87
2023/07/30 00:15:41;;;;;;;;;;;14.70;99.90;;;;;;5071581;28;19939;-87
2023/07/30 00:18:06;;;;;;;;;;;14.60;99.90;;;;;;5067239;28;19942;-86
2023/07/30 00:20:34;;;;;;;;;;;14.60;99.90;;;;;;5089484;28;19938;-86
2023/07/30 00:22:59;;;;;;;;;;;14.60;99.90;;;;;;5074034;28;19978;-86
2023/07/30 00:25:25;;;;;;;;;;;14.60;99.90;;;;;;5090667;28;19983;-84
2023/07/30 00:27:50;;;;;;;;;;;14.60;99.90;;;;;;5073958;28;19924;-87
2023/07/30 00:30:16;;;;;;;;;;;14.50;99.90;;;;;;5073776;28;20283;-85
2023/07/30 00:32:43;;;;;;;;;;;14.50;99.90;;;;;;5088375;28;20285;-88
2023/07/30 00:35:09;;;;;;;;;;;14.50;99.90;;;;;;5084266;28;20014;-86
2023/07/30 00:37:35;;;;;;;;;;;14.40;99.90;;;;;;5086554;28;19963;-86
2023/07/30 00:40:01;;;;;;;;;;;14.40;99.90;;;;;;5065743;28;19979;-86
2023/07/30 00:42:26;;;;;;;;;;;14.40;99.90;;;;;;5067144;28;20081;-88
2023/07/30 00:44:52;;;;;;;;;;;14.40;99.90;;;;;;5065133;28;20422;-86
2023/07/30 00:47:17;;;;;;;;;;;14.40;99.90;;;;;;5085526;28;19928;-86
2023/07/30 00:49:43;;;;;;;;;;;14.40;99.90;;;;;;5051527;28;19924;-87
2023/07/30 00:52:09;;;;;;;;;;;14.40;99.90;;;;;;5079682;28;20401;-86
2023/07/30 00:54:34;;;;;;;;;;;14.40;99.90;;;;;;5065270;28;19932;-86
2023/07/30 00:57:00;;;;;;;;;;;14.30;99.90;;;;;;5083186;28;19928;-86
2023/07/30 00:59:26;;;;;;;;;;;14.40;99.90;;;;;;5085367;28;19924;-86
2023/07/30 01:01:51;;;;;;;;;;;14.40;99.90;;;;;;5068900;28;19931;-87
2023/07/30 01:04:17;;;;;;;;;;;14.40;99.90;;;;;;5061634;28;19928;-86
2023/07/30 01:06:43;;;;;;;;;;;14.40;99.90;;;;;;5064464;28;19932;-88
2023/07/30 01:09:09;;;;;;;;;;;14.40;99.90;;;;;;5065702;28;20260;-86
2023/07/30 01:11:35;;;;;;;;;;;14.40;99.90;;;;;;5060624;28;19939;-86
2023/07/30 01:14:01;;;;;;;;;;;14.40;99.90;;;;;;5086115;28;19935;-85
2023/07/30 01:16:26;;;;;;;;;;;14.40;99.90;;;;;;5082413;28;19932;-86
2023/07/30 01:18:52;;;;;;;;;;;14.40;99.90;;;;;;5085533;28;19934;-87
2023/07/30 01:21:18;;;;;;;;;;;14.40;99.90;;;;;;5047679;28;19932;-87
2023/07/30 01:23:43;;;;;;;;;;;14.30;99.90;;;;;;5049885;28;19924;-85
2023/07/30 01:26:12;;;;;;;;;;;14.30;99.90;;;;;;5049615;28;20011;-86
2023/07/30 01:28:43;;;;;;;;;;;14.30;99.90;;;;;;5065648;28;20592;-84
2023/07/30 01:31:09;;;;;;;;;;;14.30;99.90;;;;;;5068346;28;19932;-85
2023/07/30 01:33:34;;;;;;;;;;;14.20;99.90;;;;;;5066966;28;19928;-86
2023/07/30 01:36:01;;;;;;;;;;;14.20;99.90;;;;;;5061532;28;19946;-86
2023/07/30 01:38:27;;;;;;;;;;;14.20;99.90;;;;;;5065287;28;19975;-86
2023/07/30 01:40:52;;;;;;;;;;;14.20;99.90;;;;;;5084404;28;20056;-86
2023/07/30 01:43:18;;;;;;;;;;;14.20;99.90;;;;;;5082950;28;20307;-86
2023/07/30 01:45:43;;;;;;;;;;;14.20;99.90;;;;;;5064410;28;19925;-85
2023/07/30 01:48:09;;;;;;;;;;;14.20;99.90;;;;;;5091259;28;19931;-85
2023/07/30 01:50:34;;;;;;;;;;;14.20;99.90;;;;;;5089302;28;19932;-85
2023/07/30 01:53:00;;;;;;;;;;;14.20;99.90;;;;;;5088057;28;20363;-85
2023/07/30 01:55:26;;;;;;;;;;;14.20;99.90;;;;;;5085335;28;19971;-86
2023/07/30 01:57:51;;;;;;;;;;;14.10;99.90;;;;;;5059755;28;19924;-87
2023/07/30 02:00:17;;;;;;;;;;;14.10;99.90;;;;;;5083532;28;19925;-86
2023/07/30 02:02:42;;;;;;;;;;;14.10;99.90;;;;;;5086548;28;20381;-85
2023/07/30 02:05:08;;;;;;;;;;;14.10;99.90;;;;;;5048260;28;19975;-86
2023/07/30 02:07:33;;;;;;;;;;;14.10;99.90;;;;;;5061450;28;19939;-84
2023/07/30 02:10:00;;;;;;;;;;;14.10;99.90;;;;;;5067542;28;19968;-85
2023/07/30 02:12:25;;;;;;;;;;;14.10;99.90;;;;;;5066613;28;19943;-85
2023/07/30 02:14:51;;;;;;;;;;;14.10;99.90;;;;;;5085035;28;19928;-86
2023/07/30 02:17:16;;;;;;;;;;;14.10;99.90;;;;;;5066271;28;19924;-85
2023/07/30 02:19:42;;;;;;;;;;;14.00;99.90;;;;;;5086748;28;20040;-86
2023/07/30 02:22:07;;;;;;;;;;;14.00;99.90;;;;;;5074574;28;19935;-88
2023/07/30 02:24:33;;;;;;;;;;;14.00;99.90;;;;;;5066354;28;20435;-85
2023/07/30 02:26:59;;;;;;;;;;;14.00;99.90;;;;;;5087670;28;19973;-88
2023/07/30 02:29:25;;;;;;;;;;;14.00;99.90;;;;;;5051011;28;20299;-85
2023/07/30 02:31:50;;;;;;;;;;;14.00;99.90;;;;;;5069136;28;19931;-86
2023/07/30 02:34:16;;;;;;;;;;;13.90;99.90;;;;;;5071639;28;20139;-86
2023/07/30 02:36:41;;;;;;;;;;;14.00;99.90;;;;;;5088518;28;19931;-86
2023/07/30 02:39:07;;;;;;;;;;;14.00;99.90;;;;;;5071883;28;19931;-88
2023/07/30 02:41:33;;;;;;;;;;;14.00;99.90;;;;;;5069963;28;19924;-84
2023/07/30 02:43:58;;;;;;;;;;;14.00;99.90;;;;;;5068433;28;19932;-87
2023/07/30 02:46:24;;;;;;;;;;;14.00;99.90;;;;;;5063640;28;20385;-85
2023/07/30 02:48:50;;;;;;;;;;;14.10;99.90;;;;;;5067005;28;19934;-86
2023/07/30 02:51:15;;;;;;;;;;;14.10;99.90;;;;;;5071319;28;20014;-84
2023/07/30 02:53:43;;;;;;;;;;;14.10;99.90;;;;;;5063902;28;20315;-85
2023/07/30 02:56:08;;;;;;;;;;;14.10;99.90;;;;;;5070275;28;20051;-87
2023/07/30 02:58:34;;;;;;;;;;;14.10;99.90;;;;;;5086472;28;20068;-86
2023/07/30 03:01:09;;;;;;;;;;;14.20;99.90;;;;;;5086918;28;19924;-85
2023/07/30 03:03:35;;;;;;;;;;;14.20;99.90;;;;;;5070459;28;20301;-86
2023/07/30 03:06:00;;;;;;;;;;;14.20;99.90;;;;;;5067707;28;20389;-86
2023/07/30 03:08:26;;;;;;;;;;;14.20;99.90;;;;;;5084751;28;20015;-85
2023/07/30 03:10:51;;;;;;;;;;;14.30;99.90;;;;;;5066517;28;20479;-85
2023/07/30 03:13:18;;;;;;;;;;;14.30;99.90;;;;;;5085195;28;20286;-86
2023/07/30 03:15:43;;;;;;;;;;;14.30;99.90;;;;;;5065179;28;19940;-87
2023/07/30 03:18:09;;;;;;;;;;;14.30;99.90;;;;;;5083313;28;19928;-86
2023/07/30 03:20:34;;;;;;;;;;;14.30;99.90;;;;;;5083784;28;20981;-86
2023/07/30 03:23:00;;;;;;;;;;;14.30;99.90;;;;;;5050115;28;19977;-87
2023/07/30 03:25:26;;;;;;;;;;;14.30;99.90;;;;;;5083452;28;20251;-87
2023/07/30 03:27:51;;;;;;;;;;;14.30;99.90;;;;;;5065630;28;19924;-84
2023/07/30 03:30:17;;;;;;;;;;;14.30;99.90;;;;;;5065583;28;20063;-87
2023/07/30 03:32:42;;;;;;;;;;;14.40;99.90;;;;;;5083464;28;19955;-86
2023/07/30 03:35:08;;;;;;;;;;;14.40;99.90;;;;;;5082459;28;19979;-85
2023/07/30 03:37:33;;;;;;;;;;;14.40;99.90;;;;;;5063998;28;20333;-87
2023/07/30 03:39:59;;;;;;;;;;;14.40;99.90;;;;;;5085567;28;19982;-85
2023/07/30 03:42:25;;;;;;;;;;;14.30;99.90;;;;;;5065271;28;19939;-87
2023/07/30 03:44:50;;;;;;;;;;;14.40;99.90;;;;;;5065142;28;20295;-85
2023/07/30 03:47:16;;;;;;;;;;;14.30;99.90;;;;;;5063992;28;19936;-85
2023/07/30 03:49:41;;;;;;;;;;;14.30;99.90;;;;;;5083811;28;19977;-87
2023/07/30 03:52:07;;;;;;;;;;;14.30;99.90;;;;;;5083814;28;19924;-86
2023/07/30 03:54:32;;;;;;;;;;;14.20;99.90;;;;;;5087053;28;19985;-85
2023/07/30 03:56:58;;;;;;;;;;;14.20;99.90;;;;;;5082258;28;19928;-89
2023/07/30 03:59:23;;;;;;;;;;;14.20;99.90;;;;;;5047503;28;19925;-84
2023/07/30 04:01:49;;;;;;;;;;;14.20;99.90;;;;;;5083207;28;20264;-85
2023/07/30 04:04:15;;;;;;;;;;;14.20;99.90;;;;;;5065263;28;20259;-85
2023/07/30 04:06:40;;;;;;;;;;;14.10;99.90;;;;;;5047688;28;20340;-87
2023/07/30 04:09:06;;;;;;;;;;;14.10;99.90;;;;;;5061340;28;19933;-87
2023/07/30 04:11:31;;;;;;;;;;;14.10;99.90;;;;;;5067207;28;20133;-86
2023/07/30 04:13:57;;;;;;;;;;;14.10;99.90;;;;;;5068079;28;20369;-86
2023/07/30 04:16:22;;;;;;;;;;;14.10;99.90;;;;;;5065485;28;19932;-85
2023/07/30 04:18:48;;;;;;;;;;;14.20;99.90;;;;;;5085230;28;19928;-85
2023/07/30 04:21:15;;;;;;;;;;;14.20;99.90;;;;;;5062682;28;19928;-85
2023/07/30 04:23:40;;;;;;;;;;;14.20;99.90;;;;;;5070261;28;19931;-85
2023/07/30 04:26:06;;;;;;;;;;;14.20;99.90;;;;;;5072096;28;20259;-87
2023/07/30 04:28:31;;;;;;;;;;;14.20;99.90;;;;;;5051357;28;19973;-85
2023/07/30 04:30:57;;;;;;;;;;;14.20;99.90;;;;;;5091752;28;19928;-87
2023/07/30 04:33:22;;;;;;;;;;;14.30;99.90;;;;;;5087026;28;19932;-85
2023/07/30 04:35:48;;;;;;;;;;;14.30;99.90;;;;;;5059221;28;21523;-87
2023/07/30 04:38:13;;;;;;;;;;;14.30;99.90;;;;;;5067744;28;19928;-88
2023/07/30 04:40:39;;;;;;;;;;;14.40;99.90;;;;;;5068522;28;20377;-85
2023/07/30 04:43:05;;;;;;;;;;;14.50;99.90;;;;;;5085126;28;19951;-86
2023/07/30 04:45:30;;;;;;;;;;;14.50;99.90;;;;;;5051403;28;19981;-85
2023/07/30 04:47:57;;;;;;;;;;;14.60;99.90;;;;;;5067311;28;19928;-87
2023/07/30 04:50:22;;;;;;;;;;;14.60;99.90;;;;;;5063932;28;19929;-87
2023/07/30 04:52:48;;;;;;;;;;;14.70;99.90;;;;;;5065071;28;19924;-86
2023/07/30 04:55:13;;;;;;;;;;;14.70;99.90;;;;;;5063856;28;19969;-86
2023/07/30 04:57:39;;;;;;;;;;;14.80;99.90;;;;;;5059228;28;20433;-84
2023/07/30 05:00:05;;;;;;;;;;;14.90;99.90;;;;;;5066731;28;19940;-88
2023/07/30 05:02:31;;;;;;;;;;;14.90;99.90;;;;;;5070475;28;19929;-84
2023/07/30 05:04:57;;;;;;;;;;;15.00;99.90;;;;;;5067220;28;19935;-85
2023/07/30 05:07:22;;;;;;;;;;;15.10;99.90;;;;;;5067254;28;19975;-86
2023/07/30 05:09:48;;;;;;;;;;;15.20;99.90;;;;;;5062726;28;19932;-86
2023/07/30 05:12:13;;;;;;;;;;;15.20;99.90;;;;;;5063369;28;19943;-88
2023/07/30 05:14:39;;;;;;;;;;;15.30;99.90;;;;;;5066086;28;19928;-85
2023/07/30 05:17:04;;;;;;;;;;;15.30;99.90;;;;;;5057634;28;19982;-84
2023/07/30 05:19:30;;;;;;;;;;;15.40;99.90;;;;;;5061464;28;19932;-86
2023/07/30 05:21:56;;;;;;;;;;;15.50;99.90;;;;;;5063270;28;19924;-87
2023/07/30 05:24:21;;;;;;;;;;;15.60;99.90;;;;;;5065596;28;19994;-86
2023/07/30 05:26:47;;;;;;;;;;;15.60;99.90;;;;;;5066296;28;19925;-86
2023/07/30 05:29:13;;;;;;;;;;;15.70;99.90;;;;;;5069988;28;20009;-86
2023/07/30 05:31:38;;;;;;;;;;;15.70;99.90;;;;;;5061519;28;19928;-85
2023/07/30 05:34:04;;;;;;;;;;;15.80;99.90;;;;;;5063855;28;20020;-84
2023/07/30 05:36:30;;;;;;;;;;;15.80;99.90;;;;;;5064313;28;19928;-87
2023/07/30 05:38:55;;;;;;;;;;;15.80;99.90;;;;;;5065454;28;19925;-85
2023/07/30 05:41:21;;;;;;;;;;;15.80;99.90;;;;;;5046393;28;19930;-85
2023/07/30 05:43:47;;;;;;;;;;;15.90;99.90;;;;;;5055277;28;20017;-86
2023/07/30 05:46:13;;;;;;;;;;;15.90;99.90;;;;;;5067115;28;19934;-86
2023/07/30 05:48:38;;;;;;;;;;;15.90;99.90;;;;;;5069452;28;20011;-85
2023/07/30 05:51:04;;;;;;;;;;;16.00;99.90;;;;;;5051349;28;19940;-87
2023/07/30 05:53:29;;;;;;;;;;;16.00;99.90;;;;;;5049289;28;19935;-88
2023/07/30 05:55:55;;;;;;;;;;;16.10;99.90;;;;;;5065815;28;20023;-84
2023/07/30 05:58:20;;;;;;;;;;;16.10;99.90;;;;;;5063765;28;19925;-85
2023/07/30 06:00:46;;;;;;;;;;;16.30;99.90;;;;;;5067922;28;20299;-85
2023/07/30 06:03:11;;;;;;;;;;;16.30;99.90;;;;;;5070231;28;19928;-86
2023/07/30 06:05:41;;;;;;;;;;;16.40;99.90;;;;;;5069034;28;19976;-86
2023/07/30 06:08:06;;;;;;;;;;;16.50;99.90;;;;;;5068028;28;20398;-87
2023/07/30 06:10:34;;;;;;;;;;;16.60;99.90;;;;;;5066731;28;19932;-86
2023/07/30 06:12:59;;;;;;;;;;;16.60;99.90;;;;;;5066771;28;19935;-87
2023/07/30 06:15:25;;;;;;;;;;;16.70;99.90;;;;;;5065844;28;20019;-86
2023/07/30 06:17:50;;;;;;;;;;;16.70;99.90;;;;;;5066596;28;19924;-87
2023/07/30 06:20:16;;;;;;;;;;;16.80;99.90;;;;;;5067638;28;20275;-85
2023/07/30 06:22:41;;;;;;;;;;;16.90;99.90;;;;;;5068474;28;19971;-88
2023/07/30 06:25:07;;;;;;;;;;;16.90;99.90;;;;;;5063356;28;20719;-85
2023/07/30 06:27:33;;;;;;;;;;;17.10;99.90;;;;;;5064034;28;19939;-87
2023/07/30 06:29:58;;;;;;;;;;;17.20;99.90;;;;;;5068688;28;20023;-85
2023/07/30 06:32:24;;;;;;;;;;;17.20;99.90;;;;;;5086006;28;20383;-87
2023/07/30 06:34:50;;;;;;;;;;;17.30;99.90;;;;;;5072527;28;20026;-87
2023/07/30 06:37:15;;;;;;;;;;;17.30;99.90;;;;;;5069249;28;19976;-87
2023/07/30 06:39:41;;;;;;;;;;;17.40;99.90;;;;;;5069275;28;20015;-87
2023/07/30 06:42:06;;;;;;;;;;;17.40;99.90;;;;;;5066806;28;20066;-86
2023/07/30 06:44:32;;;;;;;;;;;17.40;99.90;;;;;;5065982;28;19929;-87
2023/07/30 06:46:57;;;;;;;;;;;17.60;99.90;;;;;;5062695;28;20436;-88
2023/07/30 06:49:23;;;;;;;;;;;17.70;99.90;;;;;;5048043;28;19924;-87
2023/07/30 06:51:49;;;;;;;;;;;17.90;99.90;;;;;;5058840;28;20017;-88
2023/07/30 06:54:14;;;;;;;;;;;18.10;99.90;;;;;;5083285;28;20042;-87
2023/07/30 06:56:40;;;;;;;;;;;18.20;99.90;;;;;;5065543;28;19928;-86
2023/07/30 06:59:08;;;;;;;;;;;18.60;99.90;;;;;;5050667;28;20010;-90
2023/07/30 07:01:34;;;;;;;;;;;18.80;99.90;;;;;;5067834;28;20390;-86
2023/07/30 07:03:59;;;;;;;;;;;19.10;99.90;;;;;;5062176;28;19929;-85
2023/07/30 07:06:25;;;;;;;;;;;19.30;99.90;;;;;;5061634;28;19939;-88
2023/07/30 07:08:50;;;;;;;;;;;19.30;99.90;;;;;;5065376;28;19955;-89
2023/07/30 07:11:16;;;;;;;;;;;19.40;99.90;;;;;;5049568;28;20036;-88
2023/07/30 07:13:42;;;;;;;;;;;19.40;99.90;;;;;;5046688;28;19925;-85
2023/07/30 07:16:07;;;;;;;;;;;19.40;99.90;;;;;;5062156;28;19925;-87
2023/07/30 07:18:33;;;;;;;;;;;19.40;99.90;;;;;;5062818;28;21701;-85
2023/07/30 07:20:58;;;;;;;;;;;19.40;99.90;;;;;;5062360;28;19993;-87
2023/07/30 07:23:24;;;;;;;;;;;19.30;99.90;;;;;;5064152;28;20275;-86
2023/07/30 07:25:49;;;;;;;;;;;19.20;99.90;;;;;;5067070;28;19925;-85
2023/07/30 07:28:16;;;;;;;;;;;19.10;99.90;;;;;;5065222;28;20058;-86
2023/07/30 07:30:42;;;;;;;;;;;19.10;99.90;;;;;;5066623;28;19924;-86
2023/07/30 07:33:11;;;;;;;;;;;19.10;99.90;;;;;;5067986;28;19931;-88
2023/07/30 07:35:36;;;;;;;;;;;19.30;99.90;;;;;;5070376;28;20332;-87
2023/07/30 07:38:02;;;;;;;;;;;19.70;99.90;;;;;;5065747;28;19928;-88
2023/07/30 07:40:28;;;;;;;;;;;20.30;99.90;;;;;;5072394;28;20176;-87
2023/07/30 07:42:54;;;;;;;;;;;21.10;99.90;;;;;;5068417;28;19933;-87
2023/07/30 07:45:20;;;;;;;;;;;21.50;99.90;;;;;;5066749;28;19928;-85
2023/07/30 07:47:45;;;;;;;;;;;21.40;99.90;;;;;;5050694;28;20333;-86
2023/07/30 07:50:11;;;;;;;;;;;21.10;99.90;;;;;;5064091;28;19924;-86
2023/07/30 07:52:37;;;;;;;;;;;21.20;99.90;;;;;;5066459;28;19925;-88
2023/07/30 07:55:03;;;;;;;;;;;21.70;99.90;;;;;;5044609;28;19940;-86
2023/07/30 07:57:29;;;;;;;;;;;22.20;99.90;;;;;;5064384;28;19946;-85
2023/07/30 07:59:56;;;;;;;;;;;22.60;99.90;;;;;;5061945;28;19936;-85
2023/07/30 08:02:21;;;;;;;;;;;23.00;99.90;;;;;;5065553;28;19924;-87
2023/07/30 08:04:47;;;;;;;;;;;23.20;99.90;;;;;;5065577;28;19924;-86
2023/07/30 08:07:12;;;;;;;;;;;23.20;99.90;;;;;;5064634;28;20650;-87
2023/07/30 08:09:38;;;;;;;;;;;23.30;99.90;;;;;;5066806;28;19974;-86
2023/07/30 08:12:04;;;;;;;;;;;23.40;99.90;;;;;;5071913;28;20276;-87
2023/07/30 08:14:30;;;;;;;;;;;23.40;99.90;;;;;;5071043;28;19943;-87
2023/07/30 08:16:55;;;;;;;;;;;23.10;99.90;;;;;;5071018;28;20256;-86
2023/07/30 08:19:21;;;;;;;;;;;22.60;99.90;;;;;;5071180;28;19960;-85
2023/07/30 08:21:46;;;;;;;;;;;22.10;99.90;;;;;;5069692;28;19994;-87
2023/07/30 08:24:12;;;;;;;;;;;21.70;99.90;;;;;;5069803;28;19924;-86
2023/07/30 08:26:38;;;;;;;;;;;21.40;99.90;;;;;;5044664;28;20252;-88
2023/07/30 08:29:03;;;;;;;;;;;21.30;99.90;;;;;;5071803;28;19933;-86
2023/07/30 08:31:29;;;;;;;;;;;21.30;99.90;;;;;;5070218;28;20440;-86
2023/07/30 08:33:55;;;;;;;;;;;21.40;99.90;;;;;;5069368;28;19928;-87
2023/07/30 08:36:21;;;;;;;;;;;21.40;99.90;;;;;;5071007;28;19989;-86
2023/07/30 08:38:46;;;;;;;;;;;21.50;99.90;;;;;;5067031;28;19929;-88
2023/07/30 08:41:12;;;;;;;;;;;21.30;99.90;;;;;;5068710;28;20414;-89
2023/07/30 08:43:37;;;;;;;;;;;21.20;99.90;;;;;;5071607;28;20569;-86
2023/07/30 08:46:03;;;;;;;;;;;21.20;99.90;;;;;;5069144;28;19971;-87
2023/07/30 08:48:28;;;;;;;;;;;21.20;99.90;;;;;;5063788;28;20356;-87
2023/07/30 08:50:57;;;;;;;;;;;21.20;99.90;;;;;;5075387;28;19928;-87
2023/07/30 08:53:26;;;;;;;;;;;21.00;99.90;;;;;;5089138;28;20076;-88
2023/07/30 08:55:54;;;;;;;;;;;20.80;99.90;;;;;;5077677;28;20003;-87
2023/07/30 08:58:20;;;;;;;;;;;20.70;99.90;;;;;;5087342;28;19984;-86
2023/07/30 09:00:45;;;;;;;;;;;20.70;99.90;;;;;;5083270;28;20008;-87
2023/07/30 09:03:12;;;;;;;;;;;20.60;99.90;;;;;;5089189;28;20046;-87
2023/07/30 09:05:37;;;;;;;;;;;20.50;99.90;;;;;;5088146;28;19924;-84
2023/07/30 09:08:03;;;;;;;;;;;20.50;99.90;;;;;;5072419;28;20117;-87
2023/07/30 09:10:29;;;;;;;;;;;20.50;99.90;;;;;;5087713;28;19931;-87
2023/07/30 09:12:58;;;;;;;;;;;20.60;99.90;;;;;;5084266;28;19932;-86
2023/07/30 09:15:32;;;;;;;;;;;20.60;99.90;;;;;;5084849;28;19931;-87
2023/07/30 09:17:57;;;;;;;;;;;20.60;99.90;;;;;;5059870;28;19924;-87
2023/07/30 09:20:23;;;;;;;;;;;20.60;99.90;;;;;;5068595;28;20586;-87
2023/07/30 09:22:49;;;;;;;;;;;20.50;99.90;;;;;;5088921;28;19931;-87
2023/07/30 09:25:19;;;;;;;;;;;20.30;99.90;;;;;;5089621;28;20075;-87
2023/07/30 09:27:47;;;;;;;;;;;20.20;99.90;;;;;;5069714;28;20023;-89
2023/07/30 09:30:12;;;;;;;;;;;20.00;99.90;;;;;;5075293;28;20019;-87
2023/07/30 09:32:38;;;;;;;;;;;20.00;99.90;;;;;;5069208;28;20891;-89
2023/07/30 09:35:07;;;;;;;;;;;19.90;99.90;;;;;;5085245;28;19928;-88
2023/07/30 09:37:35;;;;;;;;;;;19.80;99.90;;;;;;5092605;28;19979;-88
2023/07/30 09:40:01;;;;;;;;;;;19.70;99.90;;;;;;5087054;28;20298;-89
2023/07/30 09:42:27;;;;;;;;;;;19.50;99.90;;;;;;5087669;28;19981;-88
2023/07/30 09:44:53;;;;;;;;;;;19.40;99.90;;;;;;5089161;28;19931;-88
2023/07/30 09:47:18;;;;;;;;;;;19.20;99.90;;;;;;5087924;28;19928;-85
2023/07/30 09:49:44;;;;;;;;;;;18.90;99.90;;;;;;5087121;28;19928;-89
2023/07/30 09:52:10;;;;;;;;;;;18.50;99.90;;;;;;5085054;28;20378;-86
2023/07/30 09:54:36;;;;;;;;;;;18.00;99.90;;;;;;5064497;28;20337;-86
2023/07/30 09:57:03;;;;;;;;;;;17.60;99.90;;;;;;5085086;28;19994;-87
2023/07/30 09:59:30;;;;;;;;;;;17.30;99.90;;;;;;5051949;28;20789;-87
2023/07/30 10:01:57;;;;;;;;;;;17.10;99.90;;;;;;5084337;28;19935;-87
2023/07/30 10:04:22;;;;;;;;;;;17.00;99.90;;;;;;5068510;28;20349;-86
2023/07/30 10:06:51;;;;;;;;;;;16.80;99.90;;;;;;5071383;28;19972;-85
2023/07/30 10:09:19;;;;;;;;;;;16.80;99.90;;;;;;5075502;28;19931;-87
2023/07/30 10:11:45;;;;;;;;;;;16.80;99.90;;;;;;5092889;28;19924;-87
2023/07/30 10:14:11;;;;;;;;;;;16.70;99.90;;;;;;5093459;28;19970;-87
2023/07/30 10:16:37;;;;;;;;;;;16.60;99.90;;;;;;5071413;28;19985;-89
2023/07/30 10:19:02;;;;;;;;;;;16.60;99.90;;;;;;5088069;28;20279;-86
2023/07/30 10:21:31;;;;;;;;;;;16.60;99.90;;;;;;5071349;28;19930;-87
2023/07/30 10:24:06;;;;;;;;;;;16.70;99.90;;;;;;5085795;28;19955;-87
2023/07/30 10:26:33;;;;;;;;;;;16.80;99.90;;;;;;5062839;28;19932;-86
2023/07/30 10:29:11;;;;;;;;;;;16.90;99.90;;;;;;5086765;28;19977;-86
2023/07/30 10:31:40;;;;;;;;;;;16.90;99.90;;;;;;5069344;28;19927;-87
2023/07/30 10:34:07;;;;;;;;;;;17.00;99.90;;;;;;5086209;28;19924;-87
2023/07/30 10:36:33;;;;;;;;;;;17.20;99.90;;;;;;5069781;28;19963;-88
2023/07/30 10:39:16;;;;;;;;;;;17.60;99.90;;;;;;5069308;28;19982;-84
2023/07/30 10:41:43;;;;;;;;;;;17.70;99.90;;;;;;5088851;28;20011;-85
2023/07/30 10:44:16;;;;;;;;;;;18.00;99.90;;;;;;5070009;28;19981;-87
2023/07/30 10:46:42;;;;;;;;;;;18.50;99.90;;;;;;5089661;28;19978;-87
2023/07/30 10:49:09;;;;;;;;;;;19.10;99.90;;;;;;5065728;28;20333;-87
2023/07/30 10:51:35;;;;;;;;;;;19.60;99.90;;;;;;5084653;28;19924;-88
2023/07/30 10:54:00;;;;;;;;;;;20.20;99.90;;;;;;5091749;28;20002;-86
2023/07/30 10:56:26;;;;;;;;;;;20.60;99.90;;;;;;5093703;28;19924;-87
2023/07/30 10:58:52;;;;;;;;;;;20.90;99.90;;;;;;5075893;28;19928;-84
2023/07/30 11:01:18;;;;;;;;;;;21.10;99.90;;;;;;5075778;28;19986;-87
2023/07/30 11:03:47;;;;;;;;;;;21.30;99.90;;;;;;5091269;28;19976;-85
2023/07/30 11:06:13;;;;;;;;;;;21.40;99.90;;;;;;5093510;28;19928;-86
2023/07/30 11:08:39;;;;;;;;;;;21.40;99.90;;;;;;5093532;28;19977;-87
2023/07/30 11:11:06;;;;;;;;;;;21.40;99.90;;;;;;5075582;28;20302;-85
2023/07/30 11:13:35;;;;;;;;;;;21.40;99.90;;;;;;5092538;28;19928;-86
2023/07/30 11:16:01;;;;;;;;;;;21.50;99.90;;;;;;5093527;28;19928;-86
2023/07/30 11:18:30;;;;;;;;;;;21.60;99.90;;;;;;5073477;28;19928;-86
2023/07/30 11:21:02;;;;;;;;;;;21.90;99.90;;;;;;5094461;28;19962;-85
2023/07/30 11:23:27;;;;;;;;;;;22.10;99.90;;;;;;5094186;28;19924;-88
2023/07/30 11:25:53;;;;;;;;;;;22.10;99.90;;;;;;5096365;28;20389;-87
2023/07/30 11:28:32;;;;;;;;;;;21.90;99.90;;;;;;5078162;28;19935;-86
2023/07/30 11:30:59;;;;;;;;;;;21.80;99.90;;;;;;5091091;28;19924;-87
2023/07/30 11:33:25;;;;;;;;;;;21.90;99.90;;;;;;5066880;28;20010;-89
2023/07/30 11:35:50;;;;;;;;;;;22.20;99.90;;;;;;5090793;28;20078;-88
2023/07/30 11:38:19;;;;;;;;;;;22.50;99.90;;;;;;5057913;28;19933;-87
2023/07/30 11:40:45;;;;;;;;;;;22.60;99.90;;;;;;5075341;28;20383;-86
2023/07/30 11:43:11;;;;;;;;;;;22.70;99.90;;;;;;5092756;28;20378;-86
2023/07/30 11:45:37;;;;;;;;;;;22.80;99.90;;;;;;5073846;28;19935;-87
2023/07/30 11:48:09;;;;;;;;;;;22.90;99.90;;;;;;5093478;28;20655;-85
2023/07/30 11:50:48;;;;;;;;;;;23.00;99.90;;;;;;5093210;28;19924;-85
2023/07/30 11:53:14;;;;;;;;;;;22.90;99.90;;;;;;5093039;28;19925;-87
2023/07/30 11:55:40;;;;;;;;;;;22.60;99.90;;;;;;5090015;28;20761;-85
2023/07/30 11:58:06;;;;;;;;;;;22.40;99.90;;;;;;5092648;28;20044;-87
2023/07/30 12:00:32;;;;;;;;;;;22.20;99.90;;;;;;5071555;28;19924;-87
2023/07/30 12:03:05;;;;;;;;;;;22.10;99.90;;;;;;5090234;28;20006;-88
2023/07/30 12:05:34;;;;;;;;;;;22.20;99.90;;;;;;5093776;28;19927;-86
2023/07/30 12:08:03;;;;;;;;;;;22.30;99.90;;;;;;5095808;28;19924;-87
2023/07/30 12:10:43;;;;;;;;;;;22.70;99.90;;;;;;5093123;28;19931;-88
2023/07/30 12:13:13;;;;;;;;;;;22.90;99.90;;;;;;5082410;28;19958;-88
2023/07/30 12:15:38;;;;;;;;;;;22.70;99.90;;;;;;5087050;28;20295;-89
2023/07/30 12:18:04;;;;;;;;;;;22.50;99.90;;;;;;5068889;28;19960;-91
2023/07/30 12:20:29;;;;;;;;;;;22.30;99.90;;;;;;5085670;28;20290;-89
2023/07/30 12:22:55;;;;;;;;;;;22.10;99.90;;;;;;5102025;28;19971;-87
2023/07/30 12:25:20;;;;;;;;;;;22.20;99.90;;;;;;5097023;28;19931;-87
2023/07/30 12:27:46;;;;;;;;;;;22.50;99.90;;;;;;5094023;28;19932;-92
2023/07/30 12:30:11;;;;;;;;;;;22.50;99.90;;;;;;5071251;28;19928;-88
2023/07/30 12:32:37;;;;;;;;;;;22.50;99.90;;;;;;5067513;28;20018;-87
2023/07/30 12:35:03;;;;;;;;;;;22.50;99.90;;;;;;5090162;28;19931;-89
2023/07/30 12:37:29;;;;;;;;;;;22.60;99.90;;;;;;5088056;28;19924;-87
2023/07/30 12:39:54;;;;;;;;;;;22.60;99.90;;;;;;5038321;28;19934;-87
2023/07/30 12:42:20;;;;;;;;;;;22.40;99.90;;;;;;5057020;28;19923;-86
2023/07/30 12:44:45;;;;;;;;;;;22.40;99.90;;;;;;5082811;28;19942;-87
2023/07/30 12:47:11;;;;;;;;;;;22.20;99.90;;;;;;5083703;28;19928;-85
2023/07/30 12:49:36;;;;;;;;;;;21.70;99.90;;;;;;5061488;28;19936;-87
2023/07/30 12:52:02;;;;;;;;;;;21.40;99.90;;;;;;5080934;28;20298;-88
2023/07/30 12:54:28;;;;;;;;;;;21.00;99.90;;;;;;5084186;28;20022;-86
2023/07/30 12:56:53;;;;;;;;;;;20.80;99.90;;;;;;5081460;28;19938;-88
2023/07/30 12:59:19;;;;;;;;;;;20.40;99.90;;;;;;5064797;28;20308;-86
2023/07/30 13:01:44;;;;;;;;;;;20.20;99.90;;;;;;5086719;28;20461;-86
2023/07/30 13:04:10;;;;;;;;;;;20.10;99.90;;;;;;5080682;28;19924;-86
2023/07/30 13:06:35;;;;;;;;;;;20.10;99.90;;;;;;5082174;28;19932;-88
2023/07/30 13:09:01;;;;;;;;;;;20.10;99.90;;;;;;5079993;28;19932;-87
2023/07/30 13:11:26;;;;;;;;;;;20.10;99.90;;;;;;5082030;28;19928;-85
2023/07/30 13:13:52;;;;;;;;;;;20.00;99.90;;;;;;5079445;28;19946;-86
2023/07/30 13:16:18;;;;;;;;;;;20.10;99.90;;;;;;5083188;28;19935;-85
2023/07/30 13:18:43;;;;;;;;;;;20.30;99.90;;;;;;5082106;28;20377;-86
2023/07/30 13:21:09;;;;;;;;;;;20.70;99.90;;;;;;5065680;28;19932;-87
2023/07/30 13:23:34;;;;;;;;;;;21.00;99.90;;;;;;5080876;28;19955;-85
2023/07/30 13:26:00;;;;;;;;;;;21.00;99.90;;;;;;5064303;28;19924;-86
2023/07/30 13:28:26;;;;;;;;;;;20.90;99.90;;;;;;5070647;28;19928;-85
2023/07/30 13:30:52;;;;;;;;;;;20.80;99.90;;;;;;5068120;28;19931;-86
2023/07/30 13:33:18;;;;;;;;;;;20.70;99.90;;;;;;5068092;28;19931;-85
2023/07/30 13:35:44;;;;;;;;;;;20.90;99.90;;;;;;5083618;28;20377;-86
2023/07/30 13:38:09;;;;;;;;;;;21.20;99.90;;;;;;5067627;28;19932;-86
2023/07/30 13:40:35;;;;;;;;;;;21.60;99.90;;;;;;5090285;28;20020;-86
2023/07/30 13:43:00;;;;;;;;;;;21.60;99.90;;;;;;5089692;28;19924;-85
2023/07/30 13:45:26;;;;;;;;;;;21.40;99.90;;;;;;5090919;28;19976;-84
2023/07/30 13:47:51;;;;;;;;;;;21.30;99.90;;;;;;5087606;28;19990;-85
2023/07/30 13:50:17;;;;;;;;;;;21.20;99.90;;;;;;5089827;28;20425;-85
2023/07/30 13:52:43;;;;;;;;;;;21.10;99.90;;;;;;5068455;28;19924;-85
2023/07/30 13:55:08;;;;;;;;;;;20.90;99.90;;;;;;5069272;28;19990;-85
2023/07/30 13:57:34;;;;;;;;;;;20.80;99.90;;;;;;5070232;28;19931;-86
2023/07/30 14:00:00;;;;;;;;;;;20.70;99.90;;;;;;5068955;28;19974;-85
2023/07/30 14:02:25;;;;;;;;;;;20.70;99.90;;;;;;5068369;28;20301;-86
2023/07/30 14:04:51;;;;;;;;;;;20.60;99.90;;;;;;5069297;28;19994;-85
2023/07/30 14:07:16;;;;;;;;;;;20.50;99.90;;;;;;5070632;28;19936;-86
2023/07/30 14:09:43;;;;;;;;;;;20.40;99.90;;;;;;5067758;28;20039;-85